createdAt,value
2019-03-26T00:02:04.441Z,4.97
2019-03-26T00:04:37.593Z,5.37
2019-03-26T00:07:08.602Z,5.35
2019-03-26T00:09:39.648Z,5.30
2019-03-26T00:12:10.580Z,5.62
2019-03-26T00:14:41.528Z,5.00
2019-03-26T00:17:12.403Z,4.50
2019-03-26T00:19:43.407Z,4.78
2019-03-26T00:22:14.512Z,5.12
2019-03-26T00:24:45.502Z,4.78
2019-03-26T00:27:16.416Z,5.75
2019-03-26T00:29:47.305Z,4.45
2019-03-26T00:32:18.178Z,5.60
2019-03-26T00:34:49.040Z,4.75
2019-03-26T00:37:20.121Z,4.83
2019-03-26T00:39:50.984Z,4.60
2019-03-26T00:42:21.928Z,5.30
2019-03-26T00:44:52.798Z,4.67
2019-03-26T00:47:23.828Z,5.10
2019-03-26T00:49:54.706Z,4.75
2019-03-26T00:52:25.705Z,4.67
2019-03-26T00:54:56.724Z,5.00
2019-03-26T00:57:27.710Z,5.47
2019-03-26T00:59:58.580Z,5.20
2019-03-26T01:02:29.580Z,5.37
2019-03-26T01:05:00.598Z,5.28
2019-03-26T01:07:31.723Z,5.67
2019-03-26T01:10:02.974Z,5.33
2019-03-26T01:12:34.017Z,6.00
2019-03-26T01:15:07.306Z,5.20
2019-03-26T01:17:38.328Z,5.63
2019-03-26T01:20:09.387Z,5.33
2019-03-26T01:22:40.523Z,6.17
2019-03-26T01:25:11.496Z,5.70
2019-03-26T01:27:43.451Z,5.60
2019-03-26T01:30:14.468Z,5.20
2019-03-26T01:32:46.466Z,5.33
2019-03-26T01:35:17.411Z,5.42
2019-03-26T01:37:48.407Z,5.60
2019-03-26T01:40:19.388Z,5.03
2019-03-26T01:42:51.455Z,4.92
2019-03-26T01:45:22.340Z,5.45
2019-03-26T01:47:53.332Z,5.45
2019-03-26T01:50:24.236Z,5.30
2019-03-26T01:52:55.318Z,5.33
2019-03-26T01:55:26.175Z,5.62
2019-03-26T01:57:57.182Z,4.90
2019-03-26T02:00:28.047Z,6.35
2019-03-26T02:02:59.066Z,6.50
2019-03-26T02:05:30.163Z,6.45
2019-03-26T02:08:01.225Z,5.70
2019-03-26T02:10:32.096Z,6.05
2019-03-26T02:13:03.625Z,5.40
2019-03-26T02:15:34.564Z,5.60
2019-03-26T02:18:05.518Z,5.83
2019-03-26T02:20:36.582Z,5.33
2019-03-26T02:23:07.646Z,6.20
2019-03-26T02:25:38.706Z,6.72
2019-03-26T02:28:09.800Z,5.55
2019-03-26T02:30:40.853Z,6.12
2019-03-26T02:33:11.871Z,7.47
2019-03-26T02:35:42.818Z,7.92
2019-03-26T02:38:13.675Z,6.22
2019-03-26T02:40:45.732Z,5.80
2019-03-26T02:43:16.762Z,6.03
2019-03-26T02:45:47.657Z,5.97
2019-03-26T02:48:18.641Z,6.30
2019-03-26T02:50:49.720Z,6.20
2019-03-26T02:53:20.624Z,5.92
2019-03-26T02:55:51.839Z,6.10
2019-03-26T02:58:22.655Z,5.95
2019-03-26T03:00:53.555Z,5.83
2019-03-26T03:03:24.494Z,11.78
2019-03-26T03:05:55.532Z,10.03
2019-03-26T03:08:26.639Z,7.22
2019-03-26T03:10:57.575Z,5.58
2019-03-26T03:13:28.552Z,5.95
2019-03-26T03:15:59.481Z,5.70
2019-03-26T03:18:30.412Z,6.08
2019-03-26T03:21:01.363Z,5.83
2019-03-26T03:23:32.314Z,5.70
2019-03-26T03:26:03.307Z,5.62
2019-03-26T03:28:34.402Z,6.40
2019-03-26T03:31:05.427Z,5.47
2019-03-26T03:33:36.385Z,5.53
2019-03-26T03:36:07.439Z,5.37
2019-03-26T03:38:41.292Z,6.15
2019-03-26T03:41:11.131Z,5.78
2019-03-26T03:43:42.099Z,6.37
2019-03-26T03:46:13.025Z,6.58
2019-03-26T03:48:43.946Z,5.80
2019-03-26T03:51:15.520Z,7.45
2019-03-26T03:53:46.474Z,6.50
2019-03-26T03:56:18.169Z,6.67
2019-03-26T03:58:49.122Z,6.92
2019-03-26T04:01:20.086Z,6.78
2019-03-26T04:03:51.014Z,6.47
2019-03-26T04:06:21.971Z,6.80
2019-03-26T04:08:52.826Z,6.60
2019-03-26T04:11:23.838Z,6.20
2019-03-26T04:13:54.769Z,7.05
2019-03-26T04:16:25.830Z,6.90
2019-03-26T04:18:57.898Z,7.42
2019-03-26T04:21:28.926Z,7.35
2019-03-26T04:23:59.854Z,6.72
2019-03-26T04:26:30.795Z,6.60
2019-03-26T04:29:01.733Z,7.30
2019-03-26T04:31:32.667Z,6.70
2019-03-26T04:34:04.612Z,8.13
2019-03-26T04:36:35.579Z,7.70
2019-03-26T04:39:07.950Z,7.70
2019-03-26T04:41:38.925Z,7.53
2019-03-26T04:44:09.948Z,8.68
2019-03-26T04:46:40.874Z,8.50
2019-03-26T04:49:11.821Z,10.28
2019-03-26T04:51:42.865Z,9.28
2019-03-26T04:54:13.906Z,8.63
2019-03-26T04:56:44.937Z,8.25
2019-03-26T04:59:15.829Z,8.65
2019-03-26T05:01:46.783Z,9.35
2019-03-26T05:04:17.843Z,9.53
2019-03-26T05:06:48.793Z,9.35
2019-03-26T05:09:19.672Z,8.60
2019-03-26T05:11:50.563Z,9.48
2019-03-26T05:14:21.649Z,9.15
2019-03-26T05:16:52.647Z,8.88
2019-03-26T05:19:23.596Z,8.93
2019-03-26T05:21:54.597Z,9.00
2019-03-26T05:24:25.580Z,9.85
2019-03-26T05:26:56.613Z,9.43
2019-03-26T05:29:27.553Z,10.05
2019-03-26T05:31:58.671Z,12.20
2019-03-26T05:34:29.738Z,11.90
2019-03-26T05:37:00.945Z,15.88
2019-03-26T05:39:32.030Z,14.35
2019-03-26T05:42:03.007Z,14.07
2019-03-26T05:44:34.189Z,13.53
2019-03-26T05:47:05.438Z,13.80
2019-03-26T05:49:36.657Z,14.70
2019-03-26T05:52:07.761Z,16.07
2019-03-26T05:54:39.049Z,18.02
2019-03-26T05:57:10.160Z,17.15
2019-03-26T05:59:41.295Z,18.37
2019-03-26T06:02:15.173Z,19.50
2019-03-26T06:04:45.144Z,33.35
2019-03-26T06:07:16.203Z,34.63
2019-03-26T06:09:47.366Z,36.77
2019-03-26T06:12:18.550Z,38.55
2019-03-26T06:14:49.799Z,34.67
2019-03-26T06:17:21.031Z,31.77
2019-03-26T06:19:52.101Z,32.23
2019-03-26T06:22:23.347Z,31.55
2019-03-26T06:24:54.440Z,35.48
2019-03-26T06:27:25.580Z,36.00
2019-03-26T06:29:56.727Z,33.10
2019-03-26T06:32:27.807Z,34.18
2019-03-26T06:34:59.017Z,34.70
2019-03-26T06:37:30.076Z,37.23
2019-03-26T06:40:01.122Z,37.93
2019-03-26T06:42:32.261Z,35.23
2019-03-26T06:45:04.585Z,42.00
2019-03-26T06:47:35.734Z,38.65
2019-03-26T06:50:10.591Z,40.08
2019-03-26T06:52:41.713Z,43.95
2019-03-26T06:55:12.789Z,46.28
2019-03-26T06:57:43.857Z,43.70
2019-03-26T07:00:14.980Z,42.93
2019-03-26T07:02:46.288Z,45.17
2019-03-26T07:05:17.388Z,41.73
2019-03-26T07:07:48.508Z,41.37
2019-03-26T07:10:22.901Z,42.50
2019-03-26T07:12:54.002Z,36.17
2019-03-26T07:15:24.977Z,36.80
2019-03-26T07:17:56.024Z,35.38
2019-03-26T07:20:27.013Z,35.45
2019-03-26T07:22:57.986Z,37.48
2019-03-26T07:25:28.984Z,39.18
2019-03-26T07:28:00.048Z,42.05
2019-03-26T07:30:39.679Z,36.83
2019-03-26T07:33:10.745Z,35.92
2019-03-26T07:35:41.862Z,38.05
2019-03-26T07:38:12.941Z,38.13
2019-03-26T07:40:43.976Z,37.78
2019-03-26T07:43:15.139Z,35.48
2019-03-26T07:45:46.360Z,35.85
2019-03-26T07:48:17.525Z,38.53
2019-03-26T07:50:48.620Z,38.90
2019-03-26T07:53:19.923Z,39.45
2019-03-26T07:55:51.266Z,38.08
2019-03-26T07:58:22.269Z,37.40
2019-03-26T08:00:53.397Z,40.28
2019-03-26T08:03:24.513Z,40.28
2019-03-26T08:05:55.668Z,37.90
2019-03-26T08:08:26.885Z,38.75
2019-03-26T08:10:58.080Z,51.18
2019-03-26T08:13:29.258Z,39.45
2019-03-26T08:16:00.454Z,37.45
2019-03-26T08:18:31.722Z,36.53
2019-03-26T08:21:02.860Z,35.70
2019-03-26T08:23:33.870Z,38.48
2019-03-26T08:26:04.956Z,36.28
2019-03-26T08:28:36.934Z,34.60
2019-03-26T08:31:08.167Z,36.03
2019-03-26T08:33:39.397Z,37.88
2019-03-26T08:36:10.386Z,38.48
2019-03-26T08:38:41.485Z,37.73
2019-03-26T08:41:12.526Z,34.43
2019-03-26T08:43:43.561Z,34.30
2019-03-26T08:46:14.604Z,34.35
2019-03-26T08:48:45.622Z,37.75
2019-03-26T08:51:16.687Z,34.10
2019-03-26T08:53:48.014Z,33.98
2019-03-26T08:56:19.256Z,33.00
2019-03-26T08:58:50.241Z,32.33
2019-03-26T09:01:21.301Z,35.65
2019-03-26T09:03:52.422Z,32.65
2019-03-26T09:06:23.475Z,35.45
2019-03-26T09:08:54.607Z,32.13
2019-03-26T09:11:25.710Z,31.62
2019-03-26T09:13:56.900Z,32.15
2019-03-26T09:16:28.043Z,30.20
2019-03-26T09:18:59.166Z,30.37
2019-03-26T09:21:32.582Z,28.75
2019-03-26T09:24:03.214Z,28.85
2019-03-26T09:26:34.439Z,26.87
2019-03-26T09:29:06.641Z,26.93
2019-03-26T09:31:37.669Z,27.52
2019-03-26T09:34:10.084Z,25.65
2019-03-26T09:36:41.395Z,26.40
2019-03-26T09:39:12.520Z,26.17
2019-03-26T09:41:43.565Z,27.95
2019-03-26T09:44:14.872Z,28.80
2019-03-26T09:46:46.002Z,26.85
2019-03-26T09:49:17.142Z,29.87
2019-03-26T09:51:48.367Z,28.32
2019-03-26T09:54:19.493Z,29.72
2019-03-26T09:56:50.532Z,34.15
2019-03-26T09:59:21.673Z,37.73
2019-03-26T10:01:52.934Z,42.55
2019-03-26T10:04:24.158Z,45.10
2019-03-26T10:06:55.433Z,45.98
2019-03-26T10:09:26.579Z,48.15
2019-03-26T10:11:57.993Z,44.83
2019-03-26T10:14:29.144Z,44.40
2019-03-26T10:17:00.306Z,42.30
2019-03-26T10:19:31.444Z,41.98
2019-03-26T10:22:02.666Z,42.23
2019-03-26T10:24:33.685Z,44.20
2019-03-26T10:27:04.716Z,45.83
2019-03-26T10:29:35.834Z,44.35
2019-03-26T10:32:07.033Z,47.70
2019-03-26T10:34:38.205Z,46.70
2019-03-26T10:37:09.284Z,46.73
2019-03-26T10:39:40.387Z,49.75
2019-03-26T10:42:11.513Z,47.43
2019-03-26T10:44:42.533Z,51.92
2019-03-26T10:47:13.666Z,51.77
2019-03-26T10:49:44.774Z,52.40
2019-03-26T10:52:15.920Z,50.90
2019-03-26T10:54:47.127Z,42.13
2019-03-26T10:57:18.195Z,38.95
2019-03-26T10:59:49.326Z,36.17
2019-03-26T11:02:20.394Z,30.70
2019-03-26T11:04:51.420Z,31.17
2019-03-26T11:07:22.665Z,32.80
2019-03-26T11:09:53.782Z,34.18
2019-03-26T11:12:24.899Z,32.20
2019-03-26T11:40:41.386Z,36.35
2019-03-26T11:43:12.625Z,36.93
2019-03-26T11:45:43.771Z,35.00
2019-03-26T11:48:15.079Z,33.05
2019-03-26T11:50:46.159Z,29.65
2019-03-26T11:53:17.255Z,30.17
2019-03-26T11:55:48.345Z,31.25
2019-03-26T11:58:29.960Z,34.65
2019-03-26T12:00:52.643Z,34.73
2019-03-26T12:03:23.737Z,35.05
2019-03-26T12:05:54.890Z,33.20
2019-03-26T12:08:26.111Z,32.80
2019-03-26T12:10:57.361Z,32.25
2019-03-26T12:13:28.365Z,30.37
2019-03-26T12:15:59.344Z,30.50
2019-03-26T12:18:30.454Z,30.32
2019-03-26T12:21:01.476Z,29.00
2019-03-26T12:23:32.624Z,31.75
2019-03-26T12:26:03.680Z,35.28
2019-03-26T12:28:34.730Z,35.78
2019-03-26T12:31:05.733Z,36.75
2019-03-26T12:33:36.776Z,37.20
2019-03-26T12:36:07.979Z,24.75
2019-03-26T12:38:38.929Z,28.62
2019-03-26T12:41:10.016Z,28.90
2019-03-26T12:43:41.071Z,31.12
2019-03-26T12:46:12.277Z,22.00
2019-03-26T12:48:43.365Z,23.12
2019-03-26T12:51:14.458Z,19.48
2019-03-26T12:53:45.638Z,16.67
2019-03-26T12:56:16.687Z,16.65
2019-03-26T12:58:47.820Z,14.45
2019-03-26T13:01:18.965Z,14.35
2019-03-26T13:03:49.956Z,14.35
2019-03-26T13:06:21.047Z,15.35
2019-03-26T13:08:52.097Z,15.68
2019-03-26T13:11:24.754Z,15.68
2019-03-26T13:13:55.822Z,16.50
2019-03-26T13:16:27.018Z,16.20
2019-03-26T13:18:58.324Z,17.23
2019-03-26T13:21:29.374Z,17.67
2019-03-26T13:24:00.501Z,17.85
2019-03-26T13:26:31.919Z,17.40
2019-03-26T13:29:02.910Z,16.57
2019-03-26T13:31:34.086Z,17.55
2019-03-26T13:34:05.371Z,18.67
2019-03-26T13:36:36.566Z,18.60
2019-03-26T13:39:09.007Z,26.33
2019-03-26T13:41:40.106Z,26.90
2019-03-26T13:44:11.178Z,27.15
2019-03-26T13:46:42.267Z,25.92
2019-03-26T13:49:13.289Z,25.17
2019-03-26T13:51:44.464Z,23.05
2019-03-26T13:54:15.548Z,22.37
2019-03-26T13:56:46.732Z,22.27
2019-03-26T13:59:17.839Z,22.20
2019-03-26T14:01:48.934Z,20.77
2019-03-26T14:04:20.035Z,20.82
2019-03-26T14:06:52.718Z,21.37
2019-03-26T14:09:23.823Z,22.45
2019-03-26T14:11:57.616Z,25.62
2019-03-26T14:14:27.818Z,22.13
2019-03-26T14:16:58.951Z,23.47
2019-03-26T14:19:30.072Z,22.62
2019-03-26T14:22:01.401Z,22.35
2019-03-26T14:24:32.566Z,20.88
2019-03-26T14:27:03.745Z,22.98
2019-03-26T14:29:35.084Z,22.80
2019-03-26T14:32:06.227Z,21.40
2019-03-26T14:34:37.232Z,27.42
2019-03-26T14:37:08.324Z,18.27
2019-03-26T14:39:39.490Z,21.00
2019-03-26T14:42:10.612Z,20.35
2019-03-26T14:44:41.856Z,25.82
2019-03-26T14:47:12.998Z,21.23
2019-03-26T14:49:44.116Z,19.15
2019-03-26T14:52:15.186Z,19.60
2019-03-26T14:54:46.278Z,17.17
2019-03-26T14:57:17.359Z,16.67
2019-03-26T14:59:48.699Z,16.45
2019-03-26T15:02:19.763Z,16.50
2019-03-26T15:04:51.080Z,17.50
2019-03-26T15:07:22.702Z,16.57
2019-03-26T15:09:53.816Z,17.27
2019-03-26T15:12:24.960Z,16.27
2019-03-26T15:14:57.224Z,16.27
2019-03-26T15:17:28.330Z,16.70
2019-03-26T15:19:59.550Z,26.30
2019-03-26T15:22:30.873Z,22.05
2019-03-26T15:25:02.188Z,20.17
2019-03-26T15:27:33.204Z,19.85
2019-03-26T15:30:08.868Z,19.90
2019-03-26T15:32:41.156Z,19.85
2019-03-26T15:35:12.338Z,20.00
2019-03-26T15:37:43.412Z,18.02
2019-03-26T15:40:14.565Z,19.10
2019-03-26T15:42:45.700Z,17.67
2019-03-26T15:45:16.742Z,18.12
2019-03-26T15:47:47.906Z,17.45
2019-03-26T15:50:28.200Z,18.30
2019-03-26T15:52:59.195Z,19.17
2019-03-26T15:55:30.312Z,18.25
2019-03-26T15:58:01.488Z,18.45
2019-03-26T16:00:32.969Z,16.32
2019-03-26T16:03:04.149Z,18.65
2019-03-26T16:05:35.324Z,18.67
2019-03-26T16:08:06.367Z,18.05
2019-03-26T16:10:37.411Z,17.87
2019-03-26T16:13:08.450Z,18.30
2019-03-26T16:15:44.536Z,18.85
2019-03-26T16:18:13.498Z,22.10
2019-03-26T16:20:44.604Z,33.30
2019-03-26T16:23:15.675Z,34.18
2019-03-26T16:25:46.717Z,47.45
2019-03-26T16:28:17.777Z,27.77
2019-03-26T16:30:48.778Z,25.40
2019-03-26T16:33:19.912Z,24.95
2019-03-26T16:35:50.983Z,23.05
2019-03-26T16:38:22.012Z,35.38
2019-03-26T16:40:53.082Z,65.35
2019-03-26T16:43:24.266Z,31.75
2019-03-26T16:45:55.304Z,37.13
2019-03-26T16:48:26.333Z,20.95
2019-03-26T16:50:57.511Z,22.00
2019-03-26T16:53:28.649Z,23.00
2019-03-26T16:55:59.750Z,23.98
2019-03-26T16:58:30.907Z,24.25
2019-03-26T17:01:02.093Z,24.70
2019-03-26T17:03:33.275Z,25.95
2019-03-26T17:06:04.392Z,25.00
2019-03-26T17:08:35.629Z,26.82
2019-03-26T17:11:06.710Z,24.47
2019-03-26T17:13:37.918Z,24.35
2019-03-26T17:16:09.000Z,24.90
2019-03-26T17:18:40.210Z,30.17
2019-03-26T17:21:11.324Z,27.80
2019-03-26T17:23:42.736Z,29.00
2019-03-26T17:26:15.411Z,30.05
2019-03-26T17:28:46.767Z,35.48
2019-03-26T17:31:17.922Z,45.00
2019-03-26T17:33:49.974Z,51.42
2019-03-26T17:36:21.108Z,31.55
2019-03-26T17:38:52.201Z,37.53
2019-03-26T17:41:23.296Z,33.23
2019-03-26T17:43:54.356Z,35.23
2019-03-26T17:46:25.626Z,32.83
2019-03-26T17:48:56.759Z,31.60
2019-03-26T17:51:27.921Z,29.40
2019-03-26T17:53:59.945Z,29.37
2019-03-26T17:56:31.047Z,29.52
2019-03-26T17:59:02.094Z,29.45
2019-03-26T18:01:33.267Z,27.00
2019-03-26T18:04:04.476Z,25.77
2019-03-26T18:06:35.624Z,28.92
2019-03-26T18:09:06.927Z,30.48
2019-03-26T18:11:38.146Z,30.12
2019-03-26T18:14:09.240Z,34.33
2019-03-26T18:16:40.386Z,31.17
2019-03-26T18:19:11.500Z,34.53
2019-03-26T18:21:51.367Z,41.65
2019-03-26T18:24:15.294Z,32.57
2019-03-26T18:26:46.354Z,36.03
2019-03-26T18:29:17.484Z,32.50
2019-03-26T18:31:48.571Z,34.85
2019-03-26T18:34:19.752Z,30.45
2019-03-26T18:36:50.835Z,29.42
2019-03-26T18:39:22.060Z,30.05
2019-03-26T18:41:53.337Z,30.95
2019-03-26T18:44:24.831Z,27.77
2019-03-26T18:46:56.146Z,27.85
2019-03-26T18:49:27.310Z,27.30
2019-03-26T18:51:59.635Z,25.52
2019-03-26T18:54:30.716Z,28.87
2019-03-26T18:57:01.839Z,29.42
2019-03-26T18:59:33.026Z,29.20
2019-03-26T19:02:04.241Z,27.05
2019-03-26T19:04:36.599Z,30.45
2019-03-26T19:07:07.665Z,33.15
2019-03-26T19:09:38.805Z,28.65
2019-03-26T19:12:09.776Z,34.35
2019-03-26T19:14:41.452Z,28.38
2019-03-26T19:17:12.587Z,28.30
2019-03-26T19:19:43.883Z,26.00
2019-03-26T19:22:14.997Z,27.42
2019-03-26T19:24:46.295Z,27.80
2019-03-26T19:27:17.329Z,27.00
2019-03-26T19:29:48.471Z,29.92
2019-03-26T19:32:19.798Z,31.05
2019-03-26T19:34:51.171Z,27.98
2019-03-26T19:37:22.469Z,28.95
2019-03-26T19:39:53.840Z,25.92
2019-03-26T19:42:25.040Z,29.82
2019-03-26T19:44:56.218Z,26.82
2019-03-26T19:47:27.535Z,26.50
2019-03-26T19:49:58.780Z,27.20
2019-03-26T19:52:30.096Z,26.75
2019-03-26T19:55:01.522Z,27.50
2019-03-26T19:57:32.728Z,26.87
2019-03-26T20:00:05.639Z,27.90
2019-03-26T20:02:36.911Z,29.87
2019-03-26T20:05:08.598Z,27.32
2019-03-26T20:07:39.896Z,26.05
2019-03-26T20:10:11.383Z,26.05
2019-03-26T20:12:42.568Z,25.75
2019-03-26T20:15:13.858Z,25.02
2019-03-26T20:17:44.906Z,25.37
2019-03-26T20:20:17.648Z,24.47
2019-03-26T20:22:48.849Z,25.15
2019-03-26T20:25:20.015Z,26.12
2019-03-26T20:27:51.198Z,27.95
2019-03-26T20:30:22.275Z,28.42
2019-03-26T20:32:53.318Z,27.30
2019-03-26T20:35:24.418Z,27.10
2019-03-26T20:37:56.090Z,25.43
2019-03-26T20:40:27.112Z,26.77
2019-03-26T20:42:58.351Z,26.40
2019-03-26T20:45:29.776Z,24.95
2019-03-26T20:48:01.086Z,23.85
2019-03-26T20:50:32.270Z,25.05
2019-03-26T20:53:03.455Z,25.40
2019-03-26T20:55:35.149Z,25.57
2019-03-26T20:58:06.240Z,24.72
2019-03-26T21:00:39.882Z,25.88
2019-03-26T21:03:11.096Z,23.18
2019-03-26T21:05:42.230Z,23.02
2019-03-26T21:08:13.396Z,22.30
2019-03-26T21:10:44.579Z,23.07
2019-03-26T21:13:15.665Z,23.77
2019-03-26T21:15:56.690Z,22.82
2019-03-26T21:18:19.591Z,23.35
2019-03-26T21:20:51.163Z,23.57
2019-03-26T21:23:23.364Z,26.03
2019-03-26T21:25:54.558Z,23.80
2019-03-26T21:28:25.631Z,23.73
2019-03-26T21:30:56.593Z,25.52
2019-03-26T21:33:27.603Z,25.30
2019-03-26T21:35:58.673Z,24.57
2019-03-26T21:38:29.807Z,24.57
2019-03-26T21:41:00.926Z,23.35
2019-03-26T21:43:32.643Z,21.90
2019-03-26T21:46:03.620Z,21.52
2019-03-26T21:48:34.767Z,22.15
2019-03-26T21:51:07.905Z,21.80
2019-03-26T21:53:39.053Z,21.65
2019-03-26T21:56:10.134Z,21.62
2019-03-26T21:58:41.232Z,21.70
2019-03-26T22:01:12.367Z,22.13
2019-03-26T22:03:43.460Z,21.73
2019-03-26T22:06:14.604Z,20.65
2019-03-26T22:08:45.676Z,21.52
2019-03-26T22:11:16.796Z,20.30
2019-03-26T22:13:47.780Z,21.45
2019-03-26T22:16:18.890Z,21.48
2019-03-26T22:18:49.930Z,21.45
2019-03-26T22:21:20.948Z,21.90
2019-03-26T22:23:52.128Z,20.15
2019-03-26T22:26:23.235Z,20.75
2019-03-26T22:28:54.241Z,22.32
2019-03-26T22:31:25.325Z,20.92
2019-03-26T22:33:56.292Z,20.48
2019-03-26T22:36:27.310Z,21.37
2019-03-26T22:38:58.350Z,20.82
2019-03-26T22:41:29.318Z,18.75
2019-03-26T22:44:00.331Z,19.92
2019-03-26T22:46:31.313Z,18.50
2019-03-26T22:49:02.303Z,18.48
2019-03-26T22:51:33.350Z,19.85
2019-03-26T22:54:04.392Z,19.50
2019-03-26T22:56:35.440Z,19.20
2019-03-26T22:59:06.476Z,18.37
2019-03-26T23:01:37.687Z,19.60
2019-03-26T23:04:08.755Z,18.77
2019-03-26T23:06:39.807Z,17.67
2019-03-26T23:09:10.851Z,19.45
2019-03-26T23:11:41.993Z,18.05
2019-03-26T23:14:13.037Z,18.17
2019-03-26T23:16:44.253Z,18.30
2019-03-26T23:19:15.303Z,17.55
2019-03-26T23:21:46.839Z,18.15
2019-03-26T23:24:17.921Z,18.77
2019-03-26T23:26:48.884Z,18.85
2019-03-26T23:29:19.995Z,18.48
2019-03-26T23:31:51.142Z,18.45
2019-03-26T23:34:22.295Z,19.55
2019-03-26T23:36:54.041Z,19.48
2019-03-26T23:39:25.090Z,20.35
2019-03-26T23:41:56.130Z,20.32
2019-03-26T23:44:28.121Z,20.60
2019-03-26T23:46:59.230Z,20.77
2019-03-26T23:49:30.274Z,22.15
2019-03-26T23:52:01.323Z,21.40
2019-03-26T23:54:32.481Z,22.82
2019-03-26T23:57:03.501Z,22.22
2019-03-26T23:59:34.611Z,19.98
